Time;durP1;ratioP1;P1;durP2;ratioP2;P2;SDS_P1;SDS_P2;PMS_P1;PMS_P2;Temp;Humidity;BMP_temperature;BMP_pressure;BME280_temperature;BME280_humidity;BME280_pressure;Samples;Min_cycle;Max_cycle;Signal;HPM_P1;HPM_P2
2021/01/16 00:00:20;;;;;;;;;;;;;;;-0.59;85.21;99909.84;4898463;29;20028;-75
2021/01/16 00:02:46;;;;;;;24.58;15.05;;;;;;;-0.63;85.11;99906.31;4898014;29;20369;-75
2021/01/16 00:05:15;;;;;;;29.30;16.40;;;;;;;-0.26;84.34;99906.25;4897925;29;20092;-75
2021/01/16 00:07:42;;;;;;;24.73;16.17;;;;;;;-0.27;83.77;99899.41;4897982;29;20410;-75
2021/01/16 00:10:08;;;;;;;25.90;14.32;;;;;;;-0.17;82.59;99905.78;4897886;29;20542;-75
2021/01/16 00:12:33;;;;;;;23.30;14.05;;;;;;;-0.05;81.80;99902.84;4897413;29;20107;-74
2021/01/16 00:14:59;;;;;;;27.00;13.98;;;;;;;-0.09;82.24;99906.09;4890426;29;20059;-74
2021/01/16 00:17:24;;;;;;;26.70;13.45;;;;;;;-0.18;83.04;99908.25;4897691;29;20055;-76
2021/01/16 00:19:49;;;;;;;29.83;16.25;;;;;;;-0.29;82.96;99901.03;4897782;29;20039;-73
2021/01/16 00:22:14;;;;;;;24.85;14.43;;;;;;;-0.27;82.77;99904.50;4897571;29;20076;-76
2021/01/16 00:24:40;;;;;;;24.92;16.15;;;;;;;-0.37;83.53;99904.03;4897538;29;20451;-76
2021/01/16 00:27:05;;;;;;;27.13;15.73;;;;;;;-0.39;84.06;99898.88;4897649;29;20028;-76
2021/01/16 00:29:30;;;;;;;27.88;16.15;;;;;;;-0.46;84.20;99901.09;4897460;29;20095;-76
2021/01/16 00:31:56;;;;;;;31.75;17.38;;;;;;;-0.51;84.56;99913.63;4911796;29;20104;-76
2021/01/16 00:34:21;;;;;;;28.80;17.08;;;;;;;-0.42;85.26;99905.53;4897124;29;20479;-75
2021/01/16 00:36:46;;;;;;;27.20;15.63;;;;;;;-0.50;84.79;99900.06;4897300;29;20032;-74
2021/01/16 00:39:12;;;;;;;28.65;16.20;;;;;;;-0.49;85.50;99895.84;4897456;29;20055;-74
2021/01/16 00:41:37;;;;;;;27.23;15.70;;;;;;;-0.30;84.75;99894.19;4897217;29;20462;-75
2021/01/16 00:44:02;;;;;;;26.15;16.00;;;;;;;-0.36;84.01;99893.91;4896960;29;20029;-74
2021/01/16 00:46:28;;;;;;;29.15;16.88;;;;;;;-0.31;84.04;99902.63;4896882;29;20040;-75
2021/01/16 00:48:53;;;;;;;31.42;16.58;;;;;;;-0.37;84.09;99902.38;4897160;29;20402;-75
2021/01/16 00:51:18;;;;;;;29.05;16.85;;;;;;;-0.50;84.60;99895.00;4896984;29;20505;-74
2021/01/16 00:53:44;;;;;;;29.92;17.10;;;;;;;-0.40;85.25;99903.91;4897134;29;20064;-74
2021/01/16 00:56:09;;;;;;;29.63;16.90;;;;;;;-0.37;85.03;99897.28;4897238;29;20087;-74
2021/01/16 00:58:34;;;;;;;25.55;16.42;;;;;;;-0.32;86.03;99905.97;4897120;29;20095;-74
2021/01/16 08:01:55;;;;;;;78.68;37.03;;;;;;;-0.32;82.38;99875.44;5276038;23;20568;-76
2021/01/16 08:04:51;;;;;;;88.75;43.28;;;;;;;-0.15;82.23;99868.50;4898128;29;20048;-76
2021/01/16 08:07:47;;;;;;;98.57;47.00;;;;;;;-0.17;81.61;99874.34;4898085;29;20054;-76
2021/01/16 08:10:19;;;;;;;85.55;41.70;;;;;;;-0.12;81.78;99867.75;4898353;29;20029;-76
2021/01/16 08:12:55;;;;;;;71.93;37.58;;;;;;;-0.20;82.46;99871.66;4897900;29;20024;-76
2021/01/16 08:15:28;;;;;;;56.40;29.17;;;;;;;-0.27;82.98;99873.06;4898055;29;20044;-76
2021/01/16 08:17:54;;;;;;;40.00;23.48;;;;;;;0.02;82.91;99871.75;4897930;29;20032;-76
2021/01/16 08:20:29;;;;;;;42.28;22.42;;;;;;;0.21;81.89;99866.63;4897817;29;20029;-76
2021/01/16 08:22:58;;;;;;;39.92;21.98;;;;;;;-0.04;81.85;99867.28;4897769;29;20017;-76
2021/01/16 08:25:28;;;;;;;40.15;20.33;;;;;;;0.08;82.40;99861.81;4898035;29;20033;-76
2021/01/16 08:28:08;;;;;;;37.17;18.90;;;;;;;-0.05;81.68;99859.56;4897731;29;20446;-76
2021/01/16 08:30:34;;;;;;;;;;;;;;;0.07;82.77;99872.81;4897958;29;20072;-76
2021/01/16 08:33:10;;;;;;;35.42;20.50;;;;;;;-0.08;83.13;99859.44;4897501;29;19919;-76
2021/01/16 08:35:38;;;;;;;39.85;25.00;;;;;;;-0.27;83.68;99853.56;4897783;29;20028;-76
2021/01/16 08:38:29;;;;;;;36.42;20.50;;;;;;;-0.06;83.49;99857.81;4897468;29;20056;-77
2021/01/16 08:41:04;;;;;;;39.78;21.02;;;;;;;0.01;84.23;99859.84;4896293;29;20044;-76
2021/01/16 08:43:38;;;;;;;41.53;22.33;;;;;;;-0.04;83.51;99858.78;4897409;29;20031;-76
2021/01/16 08:46:18;;;;;;;42.05;23.90;;;;;;;-0.10;83.49;99856.81;4897707;29;20040;-76
2021/01/16 08:48:59;;;;;;;40.72;21.75;;;;;;;-0.18;83.83;99853.09;4897425;29;20033;-76
2021/01/16 08:51:40;;;;;;;42.95;23.75;;;;;;;-0.16;83.62;99851.47;4897189;29;20041;-76
2021/01/16 08:54:12;;;;;;;42.97;21.45;;;;;;;-0.18;84.29;99847.13;4897304;29;20116;-74
2021/01/16 08:56:51;;;;;;;45.35;22.67;;;;;;;-0.10;84.75;99850.84;4897380;29;20607;-74
2021/01/16 08:59:30;;;;;;;48.33;24.92;;;;;;;-0.17;84.56;99848.88;4897186;29;20033;-74
2021/01/16 09:02:10;;;;;;;45.42;24.70;;;;;;;-0.24;85.06;99854.50;4896882;29;20031;-74
2021/01/16 09:04:37;;;;;;;38.40;21.75;;;;;;;-0.23;85.08;99846.94;4897075;29;20123;-74
2021/01/16 09:07:14;;;;;;;47.20;23.23;;;;;;;-0.12;85.71;99852.47;4895250;29;20449;-74
2021/01/16 09:09:50;;;;;;;39.20;21.73;;;;;;;-0.21;85.45;99852.09;4896943;29;20039;-74
2021/01/16 09:12:16;;;;;;;45.13;23.75;;;;;;;-0.27;85.88;99855.25;4896793;29;20501;-73
2021/01/16 09:14:41;;;;;;;43.75;22.30;;;;;;;-0.40;86.78;99847.91;4897021;29;20033;-73
2021/01/16 09:17:21;;;;;;;43.67;23.67;;;;;;;-0.43;87.39;99856.28;4897115;29;20494;-73
2021/01/16 09:19:56;;;;;;;;;;;;;;;-0.50;88.10;99856.81;4897435;29;20044;-74
2021/01/16 09:22:27;;;;;;;45.67;23.25;;;;;;;-0.46;87.26;99861.22;4896891;29;19958;-74
2021/01/16 09:25:13;;;;;;;45.45;23.38;;;;;;;-0.52;87.48;99855.88;4896854;29;20033;-73
2021/01/16 09:27:45;;;;;;;45.63;23.00;;;;;;;-0.47;87.81;99859.50;4896795;29;20059;-74
2021/01/16 09:30:27;;;;;;;44.47;22.55;;;;;;;-0.39;86.93;99863.22;4897119;29;20032;-73
2021/01/16 09:32:53;;;;;;;41.42;22.63;;;;;;;-0.42;86.97;99863.13;4896809;29;20048;-74
2021/01/16 09:35:35;;;;;;;37.28;21.23;;;;;;;-0.52;87.24;99866.06;4896710;29;20043;-75
2021/01/16 09:38:01;;;;;;;43.25;21.92;;;;;;;-0.47;87.24;99869.69;4896865;29;20497;-74
2021/01/16 09:40:35;;;;;;;44.72;22.50;;;;;;;-0.41;87.22;99869.94;4896499;29;20459;-74
2021/01/16 09:43:13;;;;;;;43.40;23.88;;;;;;;-0.46;87.50;99871.41;4896861;29;20029;-74
2021/01/16 09:46:09;;;;;;;42.35;23.25;;;;;;;-0.41;87.76;99871.63;4896686;29;20399;-74
2021/01/16 09:48:41;;;;;;;44.72;23.40;;;;;;;-0.46;87.17;99871.41;4892547;29;20033;-74
2021/01/16 09:51:08;;;;;;;46.40;22.55;;;;;;;-0.54;87.63;99872.75;4896578;29;20029;-74
2021/01/16 09:53:33;;;;;;;46.75;23.50;;;;;;;-0.61;88.21;99869.06;4896803;29;20110;-74
2021/01/16 09:55:59;;;;;;;42.95;21.83;;;;;;;-0.32;87.16;99865.25;4896590;29;20056;-74
2021/01/16 09:58:40;;;;;;;39.30;22.08;;;;;;;-0.41;87.38;99869.06;4896745;29;20031;-76
2021/01/16 10:01:25;;;;;;;42.63;23.67;;;;;;;-0.44;88.01;99859.59;4896382;29;20028;-76
2021/01/16 10:03:55;;;;;;;40.58;22.33;;;;;;;-0.55;88.31;99858.28;4896678;29;20096;-77
2021/01/16 10:06:36;;;;;;;45.92;22.95;;;;;;;-0.55;88.30;99860.84;4896537;29;20047;-74
2021/01/16 10:09:18;;;;;;;50.35;25.45;;;;;;;-0.72;88.92;99861.78;4896673;29;20031;-74
2021/01/16 10:11:45;;;;;;;45.35;23.83;;;;;;;-0.67;88.63;99862.84;4896109;29;20047;-74
2021/01/16 10:14:15;;;;;;;44.45;23.95;;;;;;;-0.56;87.91;99856.56;4896631;29;20072;-74
2021/01/16 10:16:41;;;;;;;45.47;25.15;;;;;;;-0.69;88.33;99854.25;4896600;29;20063;-74
2021/01/16 10:19:12;;;;;;;53.05;25.17;;;;;;;-0.72;88.35;99849.06;4900086;29;20480;-74
2021/01/16 10:21:58;;;;;;;48.10;25.50;;;;;;;-0.72;88.71;99843.97;4899994;29;20430;-74
2021/01/16 10:24:25;;;;;;;43.35;23.95;;;;;;;-0.72;88.54;99838.88;4900061;29;20028;-74
2021/01/16 10:26:51;;;;;;;48.85;24.20;;;;;;;-0.72;89.46;99833.78;4899699;29;20083;-74
2021/01/16 10:29:28;;;;;;;54.03;25.55;;;;;;;-0.80;88.89;99826.69;4899972;29;20029;-74
2021/01/16 10:31:53;;;;;;;52.13;26.80;;;;;;;-0.74;90.13;99818.44;4899650;29;21894;-74
2021/01/16 10:34:19;;;;;;;49.33;27.25;;;;;;;-0.68;89.39;99810.19;4899872;29;20544;-74
2021/01/16 10:36:45;;;;;;;53.50;27.33;;;;;;;-0.70;89.33;99812.69;4899729;29;20120;-74
2021/01/16 10:39:16;;;;;;;50.55;26.23;;;;;;;-0.78;90.15;99802.16;4899766;29;20494;-74
2021/01/16 10:41:45;;;;;;;55.95;26.85;;;;;;;-0.72;90.48;99800.72;4899278;29;20037;-76
2021/01/16 10:44:12;;;;;;;47.10;24.80;;;;;;;-0.64;91.01;99797.66;4899648;29;20056;-68
2021/01/16 10:46:43;;;;;;;49.90;25.38;;;;;;;-0.39;88.82;99791.94;4899501;29;20041;-68
2021/01/16 10:49:14;;;;;;;46.13;24.58;;;;;;;-0.54;88.39;99791.31;4899780;29;20035;-68
2021/01/16 10:51:40;;;;;;;44.00;22.90;;;;;;;-0.65;87.54;99783.22;4899072;29;20102;-68
2021/01/16 10:54:07;;;;;;;48.78;23.95;;;;;;;-0.73;87.86;99779.47;4899541;29;20029;-68
2021/01/16 10:56:34;;;;;;;48.40;25.17;;;;;;;-0.55;87.17;99774.28;4899190;29;20024;-68
2021/01/16 10:59:10;;;;;;;47.35;21.80;;;;;;;-0.43;86.58;99769.72;4899627;29;20087;-67
2021/01/16 11:01:54;;;;;;;55.38;26.20;;;;;;;-0.35;85.99;99770.91;4898997;29;20032;-68
2021/01/16 11:04:28;;;;;;;39.03;22.90;;;;;;;-0.27;84.52;99761.03;4899476;29;20028;-69
2021/01/16 11:06:58;;;;;;;39.92;21.58;;;;;;;-0.22;84.06;99761.22;4899067;29;20379;-67
2021/01/16 11:09:33;;;;;;;46.85;22.13;;;;;;;-0.27;83.43;99764.47;4899198;29;20024;-67
2021/01/16 11:12:00;;;;;;;44.22;21.15;;;;;;;-0.24;83.31;99756.09;4898792;29;20103;-66
2021/01/16 11:14:36;;;;;;;35.65;20.52;;;;;;;-0.04;82.78;99749.25;4899104;29;20095;-72
2021/01/16 11:17:02;;;;;;;43.55;21.90;;;;;;;-0.10;81.58;99751.53;4898967;29;20040;-68
2021/01/16 11:19:32;;;;;;;43.83;21.30;;;;;;;-0.09;81.70;99750.75;4899025;29;20031;-68
2021/01/16 11:22:05;;;;;;;44.95;21.20;;;;;;;-0.03;81.94;99745.88;4898616;29;20032;-69
2021/01/16 11:24:52;;;;;;;74.20;35.25;;;;;;;0.19;82.80;99743.38;4898917;29;20507;-68
2021/01/16 11:27:19;;;;;;;40.47;23.08;;;;;;;0.47;80.61;99744.41;4895110;29;20044;-68
2021/01/16 11:29:44;;;;;;;54.95;26.50;;;;;;;0.45;80.26;99743.50;4886881;29;20033;-68
2021/01/16 11:32:14;;;;;;;47.80;25.33;;;;;;;0.68;78.78;99741.81;4886405;29;20443;-71
2021/01/16 11:35:03;;;;;;;70.55;28.58;;;;;;;0.66;81.76;99736.63;4882519;29;20487;-69
2021/01/16 11:37:56;;;;;;;60.28;32.83;;;;;;;0.92;77.48;99729.03;4879120;29;20041;-69
2021/01/16 11:40:46;;;;;;;52.85;26.17;;;;;;;0.72;77.63;99731.75;4879430;29;20035;-70
2021/01/16 11:43:13;;;;;;;38.33;22.38;;;;;;;0.49;77.25;99732.59;4885070;29;20032;-69
2021/01/16 11:45:38;;;;;;;48.17;25.45;;;;;;;0.34;77.32;99729.44;4885157;29;20044;-69
2021/01/16 11:48:05;;;;;;;55.75;30.60;;;;;;;0.46;79.75;99719.72;4880629;29;20032;-69
2021/01/16 11:50:34;;;;;;;57.60;27.70;;;;;;;0.71;77.97;99717.25;4893481;29;20021;-69
2021/01/16 11:53:06;;;;;;;42.97;22.48;;;;;;;0.82;76.46;99706.56;4887599;29;20040;-69
2021/01/16 11:55:32;;;;;;;36.13;20.20;;;;;;;0.77;77.08;99708.97;4885765;29;20052;-69
2021/01/16 11:58:01;;;;;;;41.92;18.55;;;;;;;0.88;77.07;99707.69;4894953;29;20115;-69
2021/01/16 12:00:27;;;;;;;38.97;17.77;;;;;;;0.83;75.43;99700.69;4882879;29;20379;-68
2021/01/16 12:02:54;;;;;;;34.10;17.10;;;;;;;1.02;74.90;99695.41;4890986;29;20032;-68
2021/01/16 12:05:21;;;;;;;31.38;18.20;;;;;;;0.93;75.46;99690.84;4889927;29;20032;-68
2021/01/16 12:07:49;;;;;;;30.63;17.55;;;;;;;0.76;74.60;99695.34;4883757;29;20028;-68
2021/01/16 12:10:23;;;;;;;28.95;16.73;;;;;;;0.80;75.28;99693.78;4894473;29;20032;-68
2021/01/16 12:12:49;;;;;;;32.25;17.73;;;;;;;0.83;75.18;99680.28;4889323;29;20093;-69
2021/01/16 12:15:21;;;;;;;54.30;26.02;;;;;;;0.80;74.50;99683.56;4906364;29;20121;-69
2021/01/16 12:17:48;;;;;;;36.78;20.60;;;;;;;0.96;74.54;99677.31;4883545;29;20040;-69
2021/01/16 12:20:15;;;;;;;33.60;18.67;;;;;;;1.14;74.36;99667.75;4881037;29;20032;-69
2021/01/16 12:22:45;;;;;;;41.88;21.20;;;;;;;1.18;74.32;99667.03;4897482;29;20103;-69
2021/01/16 12:25:12;;;;;;;30.45;17.77;;;;;;;1.14;73.80;99665.19;4890399;29;20032;-69
2021/01/16 12:27:47;;;;;;;29.52;18.10;;;;;;;1.23;74.13;99662.09;4884482;29;20024;-69
2021/01/16 12:30:13;;;;;;;26.42;16.15;;;;;;;1.15;72.95;99660.97;4894033;29;20117;-69
2021/01/16 12:32:39;;;;;;;32.95;18.23;;;;;;;1.20;73.53;99657.75;4878456;29;20492;-69
2021/01/16 12:35:05;;;;;;;32.65;18.02;;;;;;;1.15;73.61;99656.72;4887643;29;20554;-69
2021/01/16 12:37:33;;;;;;;25.95;16.45;;;;;;;1.33;73.21;99650.50;4897310;29;20108;-69
2021/01/16 12:39:59;;;;;;;30.42;16.70;;;;;;;1.16;72.96;99648.28;4881835;29;20021;-69
2021/01/16 12:42:25;;;;;;;26.90;15.82;;;;;;;1.00;75.40;99651.09;4893308;29;20502;-69
2021/01/16 12:44:52;;;;;;;30.05;17.48;;;;;;;0.95;75.33;99647.53;4885640;29;20032;-68
2021/01/16 12:47:21;;;;;;;30.77;17.70;;;;;;;1.05;74.55;99641.91;4887173;29;20699;-69
2021/01/16 12:49:51;;;;;;;32.65;17.15;;;;;;;1.03;76.30;99643.56;4892856;29;20141;-69
2021/01/16 12:52:25;;;;;;;41.08;19.90;;;;;;;1.12;73.65;99648.13;4881333;29;20065;-69
2021/01/16 12:55:02;;;;;;;46.38;20.83;;;;;;;1.06;73.46;99641.09;4890038;29;20029;-69
2021/01/16 12:57:32;;;;;;;32.97;18.20;;;;;;;0.90;74.62;99638.84;4890237;29;20076;-69
2021/01/16 12:59:58;;;;;;;31.95;18.10;;;;;;;0.81;75.95;99643.63;4881403;29;20101;-69
2021/01/16 13:02:25;;;;;;;45.97;25.27;;;;;;;0.89;74.85;99637.13;4892772;29;20108;-69
2021/01/16 13:04:55;;;;;;;41.55;22.65;;;;;;;0.91;75.59;99632.94;4878195;29;20051;-69
2021/01/16 13:07:22;;;;;;;31.38;17.88;;;;;;;0.82;74.88;99619.84;4889268;29;20028;-69
2021/01/16 13:09:49;;;;;;;31.83;16.98;;;;;;;0.87;75.23;99613.22;4896806;29;20103;-69
2021/01/16 13:12:15;;;;;;;30.27;16.35;;;;;;;0.82;73.62;99614.75;4881078;29;20058;-69
2021/01/16 13:14:53;;;;;;;27.10;15.90;;;;;;;0.88;72.36;99604.78;4891226;29;20067;-73
2021/01/16 13:17:21;;;;;;;26.55;16.35;;;;;;;1.10;73.36;99598.69;4878462;29;20081;-74
2021/01/16 13:19:48;;;;;;;34.45;17.73;;;;;;;1.20;71.24;99588.81;4878355;29;20021;-74
2021/01/16 13:22:15;;;;;;;28.85;16.13;;;;;;;0.98;72.77;99594.06;4878182;29;20092;-73
2021/01/16 13:24:41;;;;;;;28.45;16.00;;;;;;;1.18;73.44;99580.28;4878485;29;20033;-74
2021/01/16 13:27:12;;;;;;;26.92;14.38;;;;;;;0.95;71.49;99587.16;4878146;29;20089;-69
2021/01/16 13:29:37;;;;;;;21.73;13.63;;;;;;;0.35;72.94;99585.94;4878570;29;20392;-69
2021/01/16 13:32:05;;;;;;;20.23;11.80;;;;;;;0.36;71.89;99585.13;4877902;29;20057;-74
2021/01/16 13:34:32;;;;;;;23.55;13.45;;;;;;;0.75;72.59;99578.84;4878200;29;20419;-74
2021/01/16 13:36:57;;;;;;;22.20;13.18;;;;;;;1.17;72.45;99578.53;4878137;29;20033;-74
2021/01/16 13:39:23;;;;;;;24.67;14.05;;;;;;;1.12;70.37;99580.09;4878202;29;20386;-74
2021/01/16 13:41:48;;;;;;;27.80;14.15;;;;;;;1.03;71.35;99582.31;4877910;29;20029;-73
2021/01/16 13:44:19;;;;;;;23.40;13.50;;;;;;;0.73;71.39;99569.44;4878209;29;20028;-73
2021/01/16 13:46:47;;;;;;;23.63;12.98;;;;;;;0.13;72.76;99577.50;4878112;29;20025;-74
2021/01/16 13:49:24;;;;;;;23.67;13.60;;;;;;;0.03;73.67;99583.06;4878194;29;20104;-74
2021/01/16 13:51:49;;;;;;;25.38;14.35;;;;;;;-0.23;74.37;99583.81;4878292;29;20081;-74
2021/01/16 13:54:21;;;;;;;23.75;14.55;;;;;;;-0.03;75.02;99577.75;4881886;29;20403;-74
2021/01/16 13:56:52;;;;;;;22.80;14.32;;;;;;;0.17;75.27;99575.94;4881892;29;20029;-74
2021/01/16 13:59:27;;;;;;;27.58;15.65;;;;;;;0.22;74.65;99585.47;4881839;29;20028;-74
2021/01/16 14:01:55;;;;;;;30.92;15.18;;;;;;;0.22;74.97;99580.38;4881233;29;20032;-74
2021/01/16 14:04:20;;;;;;;28.77;15.15;;;;;;;0.44;74.26;99582.03;4881794;29;20032;-74
2021/01/16 14:06:54;;;;;;;30.85;18.00;;;;;;;-0.36;74.12;99588.41;4881492;29;20025;-74
2021/01/16 14:09:29;;;;;;;27.00;14.80;;;;;;;-0.14;75.08;99589.25;4881694;29;20029;-73
2021/01/16 14:11:58;;;;;;;27.27;14.38;;;;;;;0.17;74.76;99581.91;4881167;29;20056;-73
2021/01/16 14:14:31;;;;;;;23.08;14.13;;;;;;;0.48;73.99;99582.97;4881967;29;20052;-73
2021/01/16 14:17:22;;;;;;;28.40;15.30;;;;;;;0.65;72.97;99571.69;4881421;29;20477;-73
2021/01/16 14:20:02;;;;;;;26.88;14.32;;;;;;;0.94;74.01;99571.81;4881539;29;20024;-73
2021/01/16 14:22:44;;;;;;;25.45;13.65;;;;;;;0.70;70.43;99570.19;4881068;29;20107;-73
2021/01/16 14:27:46;;;;;;;22.13;13.90;;;;;;;0.12;73.31;99569.81;5109719;27;20388;-74
2021/01/16 14:30:18;;;;;;;23.30;13.60;;;;;;;0.38;72.65;99570.72;5109837;28;20114;-74
2021/01/16 14:32:54;;;;;;;25.77;14.55;;;;;;;0.38;72.23;99560.53;5109733;28;20438;-75
2021/01/16 14:35:20;;;;;;;27.20;14.60;;;;;;;0.37;73.05;99564.78;5109785;28;20055;-80
2021/01/16 14:37:54;;;;;;;25.75;15.55;;;;;;;0.51;72.97;99562.72;5109875;28;20065;-72
2021/01/16 14:40:31;;;;;;;36.78;19.30;;;;;;;0.49;72.96;99564.34;5109814;28;20020;-69
2021/01/16 14:43:01;;;;;;;31.38;16.15;;;;;;;0.48;74.38;99560.03;5109638;28;20442;-69
2021/01/16 14:45:27;;;;;;;30.70;17.13;;;;;;;0.33;74.84;99557.81;5109478;28;20445;-69
2021/01/16 14:47:52;;;;;;;25.10;14.82;;;;;;;0.31;73.90;99554.38;5109323;28;20040;-69
2021/01/16 14:50:18;;;;;;;27.58;15.60;;;;;;;0.24;74.17;99548.19;5109329;28;20016;-68
2021/01/16 14:52:43;;;;;;;26.75;16.08;;;;;;;0.20;73.47;99560.78;5109187;28;20031;-69
2021/01/16 14:55:13;;;;;;;27.40;15.98;;;;;;;0.07;74.73;99553.50;5109585;28;20031;-68
2021/01/16 14:57:44;;;;;;;35.00;16.88;;;;;;;0.03;75.12;99557.59;5109482;28;20016;-69
2021/01/16 15:00:28;;;;;;;31.85;17.83;;;;;;;0.02;75.23;99545.69;5109159;28;20553;-67
2021/01/16 15:02:58;;;;;;;38.25;20.52;;;;;;;0.02;76.20;99545.69;5109148;28;20035;-68
2021/01/16 15:05:23;;;;;;;;;;;;;;;-0.11;75.14;99546.91;5109670;28;20067;-69
2021/01/16 15:07:59;;;;;;;71.45;41.28;;;;;;;-0.14;75.08;99538.31;5109285;28;19912;-69
2021/01/16 15:10:25;;;;;;;29.48;18.58;;;;;;;-0.17;76.89;99533.09;5108935;28;20559;-69
2021/01/16 15:12:51;;;;;;;34.58;19.95;;;;;;;-0.06;76.07;99531.78;5109173;28;20035;-69
2021/01/16 15:15:16;;;;;;;31.90;22.77;;;;;;;-0.04;75.42;99525.09;5108922;28;20027;-69
2021/01/16 15:17:42;;;;;;;29.65;18.70;;;;;;;0.09;75.52;99527.25;5109044;28;20103;-68
2021/01/16 15:20:08;;;;;;;30.85;16.02;;;;;;;0.15;74.54;99522.41;5108830;28;20030;-68
2021/01/16 15:22:34;;;;;;;25.45;16.15;;;;;;;-0.16;75.37;99519.53;5108750;28;20534;-68
2021/01/16 15:24:59;;;;;;;26.92;15.32;;;;;;;0.02;74.49;99525.31;5108747;28;20036;-69
2021/01/16 15:27:26;;;;;;;28.58;16.00;;;;;;;-0.07;75.37;99519.88;5108629;28;20036;-68
2021/01/16 15:29:51;;;;;;;30.33;17.02;;;;;;;-0.19;75.87;99529.59;5108668;28;20537;-68
2021/01/16 15:32:23;;;;;;;27.50;15.60;;;;;;;-0.07;74.79;99522.44;5108551;28;20027;-68
2021/01/16 15:34:49;;;;;;;28.83;15.43;;;;;;;-0.11;74.08;99518.91;5108518;28;20026;-69
2021/01/16 15:37:17;;;;;;;31.60;17.13;;;;;;;-0.64;75.45;99525.38;5105636;28;20020;-68
2021/01/16 15:39:44;;;;;;;31.10;17.88;;;;;;;-0.81;76.69;99527.31;5094914;28;20028;-68
2021/01/16 15:42:21;;;;;;;31.63;15.73;;;;;;;-0.70;76.00;99529.38;5094750;28;20099;-68
2021/01/16 15:44:46;;;;;;;28.58;15.65;;;;;;;-0.58;76.28;99522.22;5095014;28;20103;-68
2021/01/16 15:47:12;;;;;;;35.45;16.77;;;;;;;-0.84;76.69;99532.25;5094994;28;20145;-68
2021/01/16 15:49:37;;;;;;;29.40;16.38;;;;;;;-0.82;76.37;99523.03;5091717;28;20024;-68
2021/01/16 15:52:03;;;;;;;29.92;16.77;;;;;;;-0.89;77.35;99522.72;5092237;28;20376;-68
2021/01/16 15:54:29;;;;;;;30.33;15.82;;;;;;;-0.60;74.40;99517.06;5094590;28;20157;-68
2021/01/16 15:56:55;;;;;;;35.08;16.20;;;;;;;-0.64;75.86;99516.91;5087469;28;20027;-68
2021/01/16 15:59:20;;;;;;;25.98;15.50;;;;;;;-0.85;75.80;99522.91;5034753;28;20025;-69
2021/01/16 16:01:45;;;;;;;30.15;16.00;;;;;;;-1.02;77.19;99518.81;5034048;28;20100;-68
2021/01/16 16:04:13;;;;;;;31.73;16.90;;;;;;;-1.04;78.40;99517.88;5034454;28;20037;-68
2021/01/16 16:06:38;;;;;;;30.80;16.92;;;;;;;-1.14;78.14;99510.69;5034351;28;20033;-68
2021/01/16 16:09:04;;;;;;;31.00;16.05;;;;;;;-0.95;81.04;99517.41;5034242;28;20025;-68
2021/01/16 16:11:31;;;;;;;50.00;20.58;;;;;;;-1.15;78.84;99514.06;5033774;28;20145;-73
2021/01/16 16:13:57;;;;;;;36.58;18.00;;;;;;;-1.19;79.10;99517.28;5034178;28;20052;-73
2021/01/16 16:16:22;;;;;;;42.03;23.40;;;;;;;-1.38;79.54;99525.81;5034115;28;20017;-74
2021/01/16 16:18:48;;;;;;;37.33;22.08;;;;;;;-1.42;79.32;99521.41;5034192;28;20072;-73
2021/01/16 16:21:14;;;;;;;36.70;20.13;;;;;;;-1.41;78.85;99526.56;5025370;28;20060;-74
2021/01/16 16:23:40;;;;;;;32.58;19.20;;;;;;;-1.54;80.54;99528.53;5032630;28;20021;-74
2021/01/16 16:26:07;;;;;;;43.63;23.73;;;;;;;-1.69;81.02;99528.72;5033974;28;20394;-74
2021/01/16 16:28:34;;;;;;;46.70;24.30;;;;;;;-1.75;82.25;99533.56;5033780;28;20033;-74
2021/01/16 16:30:59;;;;;;;51.67;26.05;;;;;;;-1.89;82.33;99528.75;5033753;28;20382;-74
2021/01/16 16:33:25;;;;;;;46.28;25.65;;;;;;;-1.95;82.24;99518.31;5033825;28;20032;-74
2021/01/16 16:35:52;;;;;;;46.00;22.92;;;;;;;-1.96;82.11;99520.81;5033907;28;20018;-74
2021/01/16 16:38:18;;;;;;;38.83;20.38;;;;;;;-1.97;82.18;99519.09;5033605;28;20427;-73
2021/01/16 16:40:45;;;;;;;34.28;19.73;;;;;;;-1.94;82.70;99514.97;5033633;28;20048;-74
2021/01/16 16:43:11;;;;;;;38.65;20.45;;;;;;;-2.01;81.89;99500.31;5033534;28;20029;-73
2021/01/16 16:45:38;;;;;;;38.60;19.00;;;;;;;-1.87;82.31;99504.31;5033655;28;20402;-74
2021/01/16 16:48:05;;;;;;;46.22;23.50;;;;;;;-1.97;82.06;99507.25;5033331;28;20068;-74
2021/01/16 16:50:32;;;;;;;49.75;25.38;;;;;;;-2.00;82.71;99501.16;5023918;28;20021;-74
2021/01/16 16:52:57;;;;;;;41.88;22.42;;;;;;;-2.13;82.78;99497.22;5033227;28;20060;-74
2021/01/16 16:55:27;;;;;;;42.55;22.83;;;;;;;-2.14;83.09;99498.03;5065558;28;20120;-73
2021/01/16 16:57:54;;;;;;;38.35;20.10;;;;;;;-2.17;83.24;99497.91;5033494;28;20024;-73
2021/01/16 17:00:22;;;;;;;32.65;18.58;;;;;;;-2.16;82.51;99497.09;5033233;28;20026;-73
2021/01/16 17:02:48;;;;;;;35.90;20.17;;;;;;;-2.13;82.70;99489.59;5033246;28;20029;-73
2021/01/16 17:05:15;;;;;;;41.03;21.27;;;;;;;-2.32;83.61;99482.88;5033134;28;20021;-73
2021/01/16 17:07:44;;;;;;;42.85;21.77;;;;;;;-2.27;83.36;99485.59;5033312;28;20573;-73
2021/01/16 17:10:12;;;;;;;41.72;23.20;;;;;;;-2.37;83.48;99482.66;5033085;28;20033;-73
2021/01/16 17:12:38;;;;;;;40.65;22.13;;;;;;;-2.31;83.35;99483.75;5033070;28;20067;-73
2021/01/16 17:15:05;;;;;;;43.42;23.35;;;;;;;-2.23;83.60;99483.25;5032877;28;20022;-73
2021/01/16 17:17:31;;;;;;;42.85;22.52;;;;;;;-2.35;84.19;99483.59;5032971;28;20056;-73
2021/01/16 17:19:56;;;;;;;54.25;26.17;;;;;;;-2.30;84.27;99480.41;5025236;28;20115;-73
2021/01/16 17:22:22;;;;;;;54.17;26.33;;;;;;;-2.35;84.13;99478.50;5031942;28;20065;-73
2021/01/16 17:24:47;;;;;;;58.97;26.80;;;;;;;-2.30;84.14;99475.31;5032674;28;20040;-73
2021/01/16 17:27:14;;;;;;;52.83;25.90;;;;;;;-2.30;83.55;99472.78;5032779;28;20072;-73
2021/01/16 17:29:39;;;;;;;49.08;24.10;;;;;;;-2.40;84.24;99464.75;5032538;28;20478;-73
2021/01/16 17:32:06;;;;;;;49.17;24.38;;;;;;;-2.42;83.56;99466.38;5026455;28;20036;-73
2021/01/16 17:34:32;;;;;;;40.08;23.45;;;;;;;-2.30;84.21;99460.09;5017964;28;21224;-73
2021/01/16 17:37:02;;;;;;;50.80;25.10;;;;;;;-2.34;85.26;99454.00;5017010;28;20025;-73
2021/01/16 17:39:27;;;;;;;49.60;26.33;;;;;;;-2.41;85.07;99450.34;5018207;28;20021;-74
2021/01/16 17:41:52;;;;;;;58.10;27.55;;;;;;;-2.36;84.14;99443.81;5017638;28;20056;-73
2021/01/16 17:44:18;;;;;;;45.97;25.15;;;;;;;-2.32;84.89;99437.19;5018081;28;20129;-73
2021/01/16 17:46:43;;;;;;;52.67;28.10;;;;;;;-2.31;84.90;99443.13;5017619;28;20021;-74
2021/01/16 17:49:10;;;;;;;43.83;23.60;;;;;;;-2.39;85.51;99442.78;5017789;28;20446;-74
2021/01/16 17:51:44;;;;;;;47.20;23.70;;;;;;;-2.33;84.09;99441.38;5016773;28;20061;-74
2021/01/16 17:54:12;;;;;;;39.33;22.13;;;;;;;-2.41;84.98;99447.81;5017630;28;20029;-73
2021/01/16 17:56:38;;;;;;;44.33;22.48;;;;;;;-2.35;83.58;99442.13;5017560;28;20100;-74
2021/01/16 17:59:05;;;;;;;41.40;23.05;;;;;;;-2.50;84.32;99437.25;5017730;28;20109;-73
2021/01/16 18:01:50;;;;;;;40.65;21.65;;;;;;;-2.54;85.06;99430.31;5017120;28;20095;-74
2021/01/16 18:04:15;;;;;;;40.80;22.73;;;;;;;-2.42;85.33;99425.78;5017659;28;20517;-73
2021/01/16 18:06:41;;;;;;;53.63;28.50;;;;;;;-2.38;86.23;99431.84;5017391;28;20041;-74
2021/01/16 18:09:06;;;;;;;50.88;28.80;;;;;;;-2.25;84.85;99418.03;5010853;28;20034;-74
2021/01/16 18:11:32;;;;;;;69.38;35.65;;;;;;;-2.39;84.98;99418.28;5010958;28;20041;-74
2021/01/16 18:13:59;;;;;;;74.97;36.95;;;;;;;-2.31;84.81;99417.75;5011056;28;20140;-74
2021/01/16 18:16:27;;;;;;;70.28;35.03;;;;;;;-2.30;84.29;99414.41;5011163;28;20029;-74
2021/01/16 18:18:52;;;;;;;81.70;42.95;;;;;;;-2.33;84.73;99410.91;5010958;28;20029;-73
2021/01/16 18:21:17;;;;;;;94.63;45.78;;;;;;;-2.31;84.37;99402.53;5009287;28;20033;-74
2021/01/16 18:23:43;;;;;;;83.65;42.15;;;;;;;-2.29;83.62;99406.00;5003862;28;20029;-73
2021/01/16 18:26:08;;;;;;;75.03;39.78;;;;;;;-2.31;83.42;99397.47;5003830;28;20112;-73
2021/01/16 18:28:34;;;;;;;62.22;33.17;;;;;;;-2.33;83.51;99400.78;5004506;28;20025;-73
2021/01/16 18:31:00;;;;;;;61.08;33.75;;;;;;;-2.29;83.50;99400.91;5003196;28;20037;-73
2021/01/16 18:33:26;;;;;;;65.43;33.65;;;;;;;-2.23;83.70;99401.16;5022561;28;20033;-74
2021/01/16 18:35:59;;;;;;;58.63;30.90;;;;;;;-2.20;83.69;99398.78;5004404;28;20018;-73